createdAt,value
2019-03-23T00:00:23.856Z,11.80
2019-03-23T00:02:54.217Z,11.80
2019-03-23T00:05:24.629Z,11.80
2019-03-23T00:07:54.889Z,11.90
2019-03-23T00:10:25.235Z,11.80
2019-03-23T00:12:55.627Z,11.80
2019-03-23T00:15:26.090Z,11.90
2019-03-23T00:17:56.476Z,11.90
2019-03-23T00:20:26.857Z,11.90
2019-03-23T00:22:57.293Z,11.90
2019-03-23T00:25:27.656Z,11.90
2019-03-23T00:27:58.037Z,11.80
2019-03-23T00:30:28.328Z,11.60
2019-03-23T00:32:58.619Z,11.60
2019-03-23T00:35:28.982Z,11.60
2019-03-23T00:37:59.385Z,11.50
2019-03-23T00:40:29.726Z,11.40
2019-03-23T00:43:00.128Z,11.40
2019-03-23T00:45:30.446Z,11.50
2019-03-23T00:48:00.833Z,11.60
2019-03-23T00:50:31.114Z,11.50
2019-03-23T00:53:01.410Z,11.50
2019-03-23T00:55:31.710Z,11.50
2019-03-23T00:58:02.197Z,11.60
2019-03-23T01:00:32.521Z,11.50
2019-03-23T01:03:02.791Z,11.60
2019-03-23T01:05:33.215Z,11.50
2019-03-23T01:08:03.622Z,11.40
2019-03-23T01:10:33.969Z,11.50
2019-03-23T01:13:04.198Z,11.40
2019-03-23T01:15:34.513Z,11.50
2019-03-23T01:18:04.895Z,11.60
2019-03-23T01:20:35.216Z,11.60
2019-03-23T01:23:05.706Z,11.70
2019-03-23T01:25:36.016Z,11.70
2019-03-23T01:28:06.469Z,11.80
2019-03-23T01:30:36.809Z,11.80
2019-03-23T01:33:07.302Z,11.90
2019-03-23T01:35:37.614Z,11.80
2019-03-23T01:38:07.873Z,11.70
2019-03-23T01:40:38.307Z,11.60
2019-03-23T01:43:08.552Z,11.60
2019-03-23T01:45:38.921Z,11.70
2019-03-23T01:48:09.329Z,11.60
2019-03-23T01:50:39.639Z,11.60
2019-03-23T01:53:09.929Z,11.70
2019-03-23T01:55:40.292Z,11.60
2019-03-23T01:58:10.608Z,11.60
2019-03-23T02:00:40.847Z,11.60
2019-03-23T02:03:11.190Z,11.60
2019-03-23T02:05:41.477Z,11.70
2019-03-23T02:08:11.959Z,11.70
2019-03-23T02:10:42.492Z,11.70
2019-03-23T02:13:12.864Z,11.70
2019-03-23T02:15:43.225Z,11.70
2019-03-23T02:18:13.641Z,11.60
2019-03-23T02:20:44.059Z,11.60
2019-03-23T02:23:14.431Z,11.60
2019-03-23T02:25:44.830Z,11.60
2019-03-23T02:28:15.166Z,11.70
2019-03-23T02:30:45.571Z,11.70
2019-03-23T02:33:15.911Z,11.80
2019-03-23T02:35:46.209Z,11.80
2019-03-23T02:38:16.559Z,11.80
2019-03-23T02:40:46.910Z,11.80
2019-03-23T02:43:17.300Z,11.80
2019-03-23T02:45:47.690Z,11.80
2019-03-23T02:48:18.001Z,11.80
2019-03-23T02:50:48.396Z,11.70
2019-03-23T02:53:18.751Z,11.70
2019-03-23T02:55:49.045Z,11.70
2019-03-23T02:58:19.446Z,11.70
2019-03-23T03:00:49.769Z,11.60
2019-03-23T03:03:20.091Z,11.60
2019-03-23T03:05:50.453Z,11.70
2019-03-23T03:08:20.847Z,11.70
2019-03-23T03:10:51.133Z,11.70
2019-03-23T03:13:21.501Z,11.70
2019-03-23T03:15:51.915Z,11.70
2019-03-23T03:18:22.226Z,11.80
2019-03-23T03:20:52.637Z,11.80
2019-03-23T03:23:23.033Z,11.80
2019-03-23T03:25:53.359Z,11.50
2019-03-23T03:28:23.718Z,11.50
2019-03-23T03:30:54.076Z,11.60
2019-03-23T03:33:24.404Z,11.60
2019-03-23T03:35:54.740Z,11.50
2019-03-23T03:38:25.101Z,11.50
2019-03-23T03:40:55.435Z,11.50
2019-03-23T03:43:25.769Z,11.50
2019-03-23T03:45:56.210Z,11.50
2019-03-23T03:48:26.647Z,11.40
2019-03-23T03:50:56.974Z,11.40
2019-03-23T03:53:27.347Z,11.40
2019-03-23T03:55:57.639Z,11.50
2019-03-23T03:58:28.021Z,11.50
2019-03-23T04:00:58.335Z,11.50
2019-03-23T04:03:28.705Z,11.60
2019-03-23T04:05:59.082Z,11.60
2019-03-23T04:08:29.401Z,11.60
2019-03-23T04:10:59.740Z,11.70
2019-03-23T04:13:30.081Z,11.60
2019-03-23T04:16:00.500Z,11.60
2019-03-23T04:18:30.825Z,11.50
2019-03-23T04:21:01.127Z,11.30
2019-03-23T04:23:31.350Z,11.30
2019-03-23T04:26:01.705Z,11.20
2019-03-23T04:28:31.978Z,11.00
2019-03-23T04:31:02.274Z,10.90
2019-03-23T04:33:32.533Z,10.80
2019-03-23T04:36:02.874Z,10.90
2019-03-23T04:38:33.110Z,10.90
2019-03-23T04:41:03.431Z,10.90
2019-03-23T04:43:33.749Z,10.90
2019-03-23T04:46:04.081Z,10.80
2019-03-23T04:48:34.395Z,10.80
2019-03-23T04:51:05.025Z,10.80
2019-03-23T04:53:35.479Z,10.70
2019-03-23T04:56:05.791Z,10.70
2019-03-23T04:58:36.170Z,10.70
2019-03-23T05:01:06.561Z,10.70
2019-03-23T05:03:37.016Z,10.60
2019-03-23T05:06:07.363Z,10.60
2019-03-23T05:08:37.761Z,10.60
2019-03-23T05:11:08.058Z,10.50
2019-03-23T05:13:38.505Z,10.60
2019-03-23T05:16:08.855Z,10.60
2019-03-23T05:18:39.218Z,10.50
2019-03-23T05:21:09.538Z,10.40
2019-03-23T05:23:41.481Z,10.40
2019-03-23T05:26:11.920Z,10.50
2019-03-23T05:28:42.233Z,10.40
2019-03-23T05:31:12.743Z,10.50
2019-03-23T05:33:43.032Z,10.50
2019-03-23T05:36:15.277Z,10.50
2019-03-23T05:38:47.281Z,10.50
2019-03-23T05:41:17.626Z,10.60
2019-03-23T05:43:48.018Z,10.40
2019-03-23T05:46:18.391Z,10.40
2019-03-23T05:48:48.775Z,10.30
2019-03-23T05:51:19.113Z,10.20
2019-03-23T05:53:49.474Z,10.20
2019-03-23T05:56:19.816Z,10.40
2019-03-23T05:58:50.170Z,10.60
2019-03-23T06:01:20.538Z,10.70
2019-03-23T06:03:50.902Z,10.80
2019-03-23T06:06:21.189Z,10.90
2019-03-23T06:08:55.274Z,11.00
2019-03-23T06:11:23.471Z,11.10
2019-03-23T06:13:53.838Z,11.20
2019-03-23T06:16:24.194Z,11.30
2019-03-23T06:18:54.498Z,11.50
2019-03-23T06:21:24.861Z,11.60
2019-03-23T06:23:55.177Z,11.70
2019-03-23T06:26:25.512Z,11.90
2019-03-23T06:28:55.859Z,12.00
2019-03-23T06:31:26.200Z,12.10
2019-03-23T06:33:56.505Z,12.10
2019-03-23T06:36:26.942Z,12.20
2019-03-23T06:39:05.068Z,12.20
2019-03-23T06:41:29.272Z,12.20
2019-03-23T06:43:59.585Z,12.30
2019-03-23T06:46:29.889Z,12.30
2019-03-23T06:49:00.275Z,12.40
2019-03-23T06:51:30.550Z,12.50
2019-03-23T06:54:00.909Z,12.50
2019-03-23T06:56:31.261Z,12.50
2019-03-23T06:59:01.599Z,12.60
2019-03-23T07:01:31.897Z,12.70
2019-03-23T07:04:02.300Z,12.90
2019-03-23T07:06:32.582Z,13.00
2019-03-23T07:09:03.052Z,13.20
2019-03-23T07:11:33.374Z,13.30
2019-03-23T07:14:03.674Z,13.40
2019-03-23T07:16:33.961Z,13.50
2019-03-23T07:19:04.278Z,13.60
2019-03-23T07:21:34.517Z,13.80
2019-03-23T07:24:04.876Z,13.90
2019-03-23T07:26:35.252Z,14.10
2019-03-23T07:29:05.562Z,14.20
2019-03-23T07:31:36.222Z,14.30
2019-03-23T07:34:06.677Z,14.40
2019-03-23T07:36:37.134Z,14.40
2019-03-23T07:39:08.584Z,14.50
2019-03-23T07:41:38.890Z,14.70
2019-03-23T07:44:09.254Z,14.80
2019-03-23T07:46:39.668Z,14.90
2019-03-23T07:49:10.019Z,14.90
2019-03-23T07:51:40.403Z,15.00
2019-03-23T07:54:10.802Z,15.00
2019-03-23T07:56:41.099Z,15.00
2019-03-23T07:59:11.457Z,15.10
2019-03-23T08:01:41.798Z,15.20
2019-03-23T08:04:12.171Z,15.30
2019-03-23T08:06:42.457Z,15.50
2019-03-23T08:09:20.430Z,15.70
2019-03-23T08:11:44.877Z,15.80
2019-03-23T08:14:15.325Z,15.80
2019-03-23T08:16:45.678Z,16.00
2019-03-23T08:19:16.020Z,16.20
2019-03-23T08:21:46.438Z,16.30
2019-03-23T08:24:16.720Z,16.40
2019-03-23T08:26:47.165Z,16.50
2019-03-23T08:29:17.553Z,16.60
2019-03-23T08:31:47.854Z,16.70
2019-03-23T08:34:18.258Z,16.80
2019-03-23T08:36:48.529Z,16.80
2019-03-23T08:39:18.881Z,17.00
2019-03-23T08:41:49.241Z,17.00
2019-03-23T08:44:19.741Z,17.10
2019-03-23T08:46:50.063Z,17.20
2019-03-23T08:49:20.505Z,17.20
2019-03-23T08:51:51.360Z,17.30
2019-03-23T08:54:21.691Z,17.30
2019-03-23T08:56:52.070Z,17.40
2019-03-23T08:59:22.315Z,17.40
2019-03-23T09:01:52.662Z,17.50
2019-03-23T09:04:22.991Z,17.60
2019-03-23T09:06:53.347Z,17.60
2019-03-23T09:09:23.646Z,17.70
2019-03-23T09:11:54.006Z,17.70
2019-03-23T09:14:24.418Z,17.70
2019-03-23T09:16:54.739Z,17.80
2019-03-23T09:19:25.082Z,17.80
2019-03-23T09:21:55.418Z,17.90
2019-03-23T09:24:25.647Z,17.90
2019-03-23T09:26:56.438Z,18.00
2019-03-23T09:29:26.718Z,18.10
2019-03-23T09:31:57.038Z,18.10
2019-03-23T09:34:27.264Z,18.20
2019-03-23T09:36:57.659Z,18.30
2019-03-23T09:39:27.918Z,18.40
2019-03-23T09:41:58.260Z,18.50
2019-03-23T09:44:28.623Z,18.60
2019-03-23T09:46:59.014Z,18.60
2019-03-23T09:49:29.401Z,18.60
2019-03-23T09:51:59.857Z,18.70
2019-03-23T09:54:30.269Z,18.70
2019-03-23T09:57:00.613Z,18.80
2019-03-23T09:59:30.883Z,18.80
2019-03-23T10:02:01.119Z,18.80
2019-03-23T10:04:31.499Z,18.90
2019-03-23T10:07:01.801Z,18.90
2019-03-23T10:09:32.186Z,19.00
2019-03-23T10:12:02.526Z,19.00
2019-03-23T10:14:32.852Z,19.10
2019-03-23T10:17:03.251Z,19.00
2019-03-23T10:19:33.571Z,19.10
2019-03-23T10:22:03.913Z,19.10
2019-03-23T10:24:34.596Z,19.30
2019-03-23T10:27:04.855Z,19.40
2019-03-23T10:29:35.195Z,19.40
2019-03-23T10:32:05.658Z,19.40
2019-03-23T10:34:35.960Z,19.50
2019-03-23T10:37:06.238Z,19.60
2019-03-23T10:39:36.590Z,19.70
2019-03-23T10:42:06.922Z,19.70
2019-03-23T10:44:37.272Z,19.70
2019-03-23T10:47:07.526Z,19.90
2019-03-23T10:49:37.933Z,20.00
2019-03-23T10:52:08.323Z,19.90
2019-03-23T10:54:38.773Z,20.00
2019-03-23T10:57:09.142Z,20.20
2019-03-23T10:59:39.481Z,20.20
2019-03-23T11:02:09.928Z,20.20
2019-03-23T11:04:40.334Z,20.10
2019-03-23T11:07:10.685Z,20.20
2019-03-23T11:09:41.008Z,20.30
2019-03-23T11:12:11.482Z,20.30
2019-03-23T11:14:41.831Z,20.30
2019-03-23T11:17:12.150Z,20.20
2019-03-23T11:19:43.918Z,20.30
2019-03-23T11:22:17.819Z,20.30
2019-03-23T11:24:48.174Z,20.40
2019-03-23T11:27:18.510Z,20.40
2019-03-23T11:29:48.847Z,20.50
2019-03-23T11:32:19.203Z,20.50
2019-03-23T11:34:49.536Z,20.60
2019-03-23T11:37:19.931Z,20.60
2019-03-23T11:39:50.264Z,20.70
2019-03-23T11:42:20.622Z,20.80
2019-03-23T11:44:52.564Z,20.80
2019-03-23T11:47:22.934Z,20.90
2019-03-23T11:49:53.427Z,21.00
2019-03-23T11:52:23.802Z,21.00
2019-03-23T11:54:54.169Z,20.90
2019-03-23T11:57:24.518Z,20.90
2019-03-23T11:59:54.826Z,20.90
2019-03-23T12:02:25.194Z,20.90
2019-03-23T12:04:55.525Z,20.80
2019-03-23T12:07:25.915Z,20.90
2019-03-23T12:09:56.264Z,21.00
2019-03-23T12:12:26.657Z,21.10
2019-03-23T12:14:56.967Z,21.20
2019-03-23T12:17:27.276Z,21.20
2019-03-23T12:19:57.571Z,21.10
2019-03-23T12:22:27.949Z,21.20
2019-03-23T12:24:58.295Z,21.20
2019-03-23T12:27:28.628Z,21.20
2019-03-23T12:30:06.735Z,21.10
2019-03-23T12:32:31.049Z,21.20
2019-03-23T12:35:01.449Z,21.20
2019-03-23T12:37:31.734Z,21.30
2019-03-23T12:40:02.139Z,21.40
2019-03-23T12:42:32.438Z,21.40
2019-03-23T12:45:02.882Z,21.50
2019-03-23T12:47:33.178Z,21.50
2019-03-23T12:50:03.545Z,21.60
2019-03-23T12:52:33.882Z,21.60
2019-03-23T12:55:04.260Z,21.50
2019-03-23T12:57:34.622Z,21.60
2019-03-23T13:00:06.683Z,21.60
2019-03-23T13:02:37.029Z,21.50
2019-03-23T13:05:07.977Z,21.60
2019-03-23T13:07:38.381Z,21.70
2019-03-23T13:10:09.374Z,21.60
2019-03-23T13:12:39.780Z,21.60
2019-03-23T13:15:11.055Z,21.70
2019-03-23T13:17:41.487Z,21.60
2019-03-23T13:20:11.822Z,21.70
2019-03-23T13:22:42.282Z,21.80
2019-03-23T13:25:12.886Z,21.80
2019-03-23T13:27:43.267Z,21.80
2019-03-23T13:30:13.854Z,21.90
2019-03-23T13:32:44.139Z,21.80
2019-03-23T13:35:14.463Z,21.90
2019-03-23T13:37:44.747Z,22.00
2019-03-23T13:40:15.314Z,21.90
2019-03-23T13:42:45.630Z,21.90
2019-03-23T13:45:16.130Z,21.90
2019-03-23T13:47:46.507Z,22.10
2019-03-23T13:50:24.786Z,22.10
2019-03-23T13:52:55.140Z,22.00
2019-03-23T13:55:27.418Z,22.00
2019-03-23T13:57:59.742Z,22.00
2019-03-23T14:00:30.121Z,22.00
2019-03-23T14:03:00.430Z,21.90
2019-03-23T14:05:30.865Z,21.90
2019-03-23T14:08:01.207Z,21.90
2019-03-23T14:10:31.586Z,21.90
2019-03-23T14:13:01.931Z,21.90
2019-03-23T14:15:32.237Z,22.00
2019-03-23T14:18:02.545Z,22.00
2019-03-23T14:20:32.924Z,22.10
2019-03-23T14:23:03.292Z,22.10
2019-03-23T14:25:33.670Z,22.10
2019-03-23T14:28:03.991Z,22.20
2019-03-23T14:30:34.461Z,22.10
2019-03-23T14:33:04.832Z,22.10
2019-03-23T14:35:35.225Z,22.20
2019-03-23T14:38:05.566Z,22.20
2019-03-23T14:40:35.881Z,22.30
2019-03-23T14:43:06.185Z,22.20
2019-03-23T14:45:37.048Z,22.10
2019-03-23T14:48:07.449Z,22.00
2019-03-23T14:50:37.772Z,21.90
2019-03-23T14:53:08.283Z,21.90
2019-03-23T14:55:38.609Z,22.00
2019-03-23T14:58:08.995Z,22.00
2019-03-23T15:00:39.395Z,22.10
2019-03-23T15:03:09.842Z,22.10
2019-03-23T15:05:40.158Z,22.10
2019-03-23T15:08:10.522Z,22.20
2019-03-23T15:10:40.877Z,22.20
2019-03-23T15:13:11.241Z,22.10
2019-03-23T15:15:41.997Z,22.10
2019-03-23T15:18:12.332Z,22.10
2019-03-23T15:20:42.786Z,22.10
2019-03-23T15:23:13.132Z,22.10
2019-03-23T15:25:43.457Z,22.10
2019-03-23T15:28:13.858Z,22.10
2019-03-23T15:30:44.251Z,22.10
2019-03-23T15:33:14.566Z,22.10
2019-03-23T15:35:44.914Z,22.00
2019-03-23T15:38:17.124Z,22.00
2019-03-23T15:40:47.482Z,22.00
2019-03-23T15:43:17.879Z,21.90
2019-03-23T15:45:48.235Z,21.90
2019-03-23T15:48:18.589Z,21.90
2019-03-23T15:50:48.885Z,21.90
2019-03-23T15:53:19.194Z,21.90
2019-03-23T15:55:49.519Z,21.80
2019-03-23T15:58:19.831Z,21.70
2019-03-23T16:00:50.145Z,21.50
2019-03-23T16:03:20.437Z,21.40
2019-03-23T16:05:52.611Z,21.40
2019-03-23T16:08:22.879Z,21.30
2019-03-23T16:10:53.265Z,21.30
2019-03-23T16:13:23.596Z,21.20
2019-03-23T16:15:54.019Z,21.20
2019-03-23T16:18:24.446Z,21.10
2019-03-23T16:20:54.815Z,21.10
2019-03-23T16:23:25.161Z,21.10
2019-03-23T16:25:55.969Z,21.10
2019-03-23T16:28:26.289Z,21.00
2019-03-23T16:30:56.619Z,20.90
2019-03-23T16:33:29.266Z,20.90
2019-03-23T16:36:03.613Z,20.70
2019-03-23T16:38:34.100Z,20.70
2019-03-23T16:41:04.462Z,20.70
2019-03-23T16:43:35.215Z,20.70
2019-03-23T16:46:05.494Z,20.60
2019-03-23T16:48:35.773Z,20.50
2019-03-23T16:51:06.170Z,20.50
2019-03-23T16:53:36.471Z,20.40
2019-03-23T16:56:06.787Z,20.40
2019-03-23T16:58:37.150Z,20.30
2019-03-23T17:01:07.451Z,20.20
2019-03-23T17:03:37.821Z,20.10
2019-03-23T17:06:08.190Z,20.00
2019-03-23T17:08:38.524Z,20.00
2019-03-23T17:11:08.882Z,19.90
2019-03-23T17:13:39.169Z,19.80
2019-03-23T17:16:09.494Z,19.80
2019-03-23T17:18:39.838Z,19.70
2019-03-23T17:21:10.227Z,19.60
2019-03-23T17:23:40.546Z,19.50
2019-03-23T17:26:10.872Z,19.50
2019-03-23T17:28:41.236Z,19.40
2019-03-23T17:31:11.482Z,19.30
2019-03-23T17:33:41.871Z,19.20
2019-03-23T17:36:12.226Z,19.20
2019-03-23T17:38:42.594Z,19.10
2019-03-23T17:41:12.835Z,19.00
2019-03-23T17:43:43.161Z,19.00
2019-03-23T17:46:13.492Z,18.80
2019-03-23T17:48:43.861Z,18.70
2019-03-23T17:51:14.221Z,18.70
2019-03-23T17:53:44.514Z,18.70
2019-03-23T17:56:14.894Z,18.70
2019-03-23T17:58:45.309Z,18.60
2019-03-23T18:01:19.622Z,18.50
2019-03-23T18:03:48.950Z,18.40
2019-03-23T18:06:19.360Z,18.40
2019-03-23T18:08:49.676Z,18.40
2019-03-23T18:11:20.010Z,18.40
2019-03-23T18:13:50.374Z,18.30
2019-03-23T18:16:20.746Z,18.30
2019-03-23T18:18:51.091Z,18.20
2019-03-23T18:21:21.582Z,18.20
2019-03-23T18:23:51.896Z,18.20
2019-03-23T18:26:22.262Z,18.10
2019-03-23T18:28:52.609Z,18.00
2019-03-23T18:31:22.937Z,17.90
2019-03-23T18:33:53.227Z,17.80
2019-03-23T18:36:23.597Z,17.80
2019-03-23T18:38:53.958Z,17.70
2019-03-23T18:41:24.296Z,17.70
2019-03-23T18:43:54.674Z,17.70
2019-03-23T18:46:25.025Z,17.70
2019-03-23T18:48:55.370Z,17.70
2019-03-23T18:51:25.679Z,17.60
2019-03-23T18:53:56.013Z,17.60
2019-03-23T18:56:26.321Z,17.70
2019-03-23T18:58:56.651Z,17.60
2019-03-23T19:01:26.968Z,17.50
2019-03-23T19:03:57.359Z,17.40
2019-03-23T19:06:27.732Z,17.30
2019-03-23T19:08:58.067Z,17.30
2019-03-23T19:11:28.441Z,17.10
2019-03-23T19:13:58.756Z,17.20
2019-03-23T19:16:29.141Z,17.30
2019-03-23T19:18:59.605Z,17.30
2019-03-23T19:21:29.879Z,17.10
2019-03-23T19:24:00.245Z,17.00
2019-03-23T19:26:30.558Z,16.90
2019-03-23T19:29:00.823Z,16.80
2019-03-23T19:31:31.207Z,16.80
2019-03-23T19:34:01.527Z,16.80
2019-03-23T19:36:32.342Z,16.80
2019-03-23T19:39:02.731Z,16.80
2019-03-23T19:41:33.120Z,16.80
2019-03-23T19:44:03.506Z,16.70
2019-03-23T19:46:33.830Z,16.70
2019-03-23T19:49:04.251Z,16.60
2019-03-23T19:51:34.606Z,16.60
2019-03-23T19:54:05.399Z,16.60
2019-03-23T19:56:35.710Z,16.60
2019-03-23T19:59:06.127Z,16.60
2019-03-23T20:01:36.433Z,16.50
2019-03-23T20:04:06.818Z,16.40
2019-03-23T20:06:37.127Z,16.30
2019-03-23T20:09:09.260Z,16.20
2019-03-23T20:11:39.590Z,16.20
2019-03-23T20:14:09.978Z,16.20
2019-03-23T20:16:40.290Z,16.10
2019-03-23T20:19:10.736Z,16.00
2019-03-23T20:21:41.111Z,16.00
2019-03-23T20:24:11.482Z,15.90
2019-03-23T20:26:41.870Z,15.90
2019-03-23T20:29:12.173Z,15.80
2019-03-23T20:31:42.508Z,15.70
2019-03-23T20:34:12.809Z,15.60
2019-03-23T20:36:43.190Z,15.60
2019-03-23T20:39:13.429Z,15.70
2019-03-23T20:41:43.741Z,15.70
2019-03-23T20:44:14.075Z,15.60
2019-03-23T20:46:44.661Z,15.50
2019-03-23T20:49:14.981Z,15.40
2019-03-23T20:51:46.199Z,15.30
2019-03-23T20:54:16.793Z,15.20
2019-03-23T20:56:47.142Z,15.20
2019-03-23T20:59:17.486Z,15.10
2019-03-23T21:01:47.880Z,15.10
2019-03-23T21:04:18.239Z,15.10
2019-03-23T21:06:48.621Z,14.80
2019-03-23T21:09:18.864Z,14.70
2019-03-23T21:11:49.173Z,14.70
2019-03-23T21:14:20.450Z,14.60
2019-03-23T21:16:51.130Z,14.70
2019-03-23T21:19:21.474Z,14.80
2019-03-23T21:21:52.305Z,14.90
2019-03-23T21:24:22.706Z,14.90
2019-03-23T21:26:52.974Z,15.00
2019-03-23T21:29:23.352Z,15.00
2019-03-23T21:31:53.589Z,15.00
2019-03-23T21:34:24.039Z,15.00
2019-03-23T21:36:54.313Z,14.90
2019-03-23T21:39:24.718Z,14.90
2019-03-23T21:41:55.093Z,14.90
2019-03-23T21:44:31.007Z,14.90
2019-03-23T21:46:57.550Z,14.80
2019-03-23T21:49:27.834Z,14.80
2019-03-23T21:51:58.138Z,14.80
2019-03-23T21:54:28.425Z,14.80
2019-03-23T21:56:58.788Z,14.80
2019-03-23T21:59:29.141Z,14.80
2019-03-23T22:01:59.532Z,14.80
2019-03-23T22:04:31.003Z,14.80
2019-03-23T22:07:01.435Z,14.80
2019-03-23T22:09:31.792Z,14.80
2019-03-23T22:12:02.278Z,14.80
2019-03-23T22:14:41.343Z,14.80
2019-03-23T22:17:05.813Z,14.80
2019-03-23T22:19:36.426Z,14.80
2019-03-23T22:22:06.869Z,14.80
2019-03-23T22:24:37.236Z,14.80
2019-03-23T22:27:07.575Z,14.80
2019-03-23T22:29:37.893Z,14.80
2019-03-23T22:32:08.204Z,14.80
2019-03-23T22:34:38.608Z,14.70
2019-03-23T22:37:08.906Z,14.70
2019-03-23T22:39:39.233Z,14.70
2019-03-23T22:42:09.546Z,14.60
2019-03-23T22:44:39.979Z,14.40
2019-03-23T22:47:10.325Z,14.30
2019-03-23T22:49:40.712Z,14.10
2019-03-23T22:52:11.007Z,13.80
2019-03-23T22:54:41.352Z,13.70
2019-03-23T22:57:11.715Z,13.50
2019-03-23T22:59:42.058Z,13.40
2019-03-23T23:02:12.397Z,13.40
2019-03-23T23:04:42.751Z,13.20
2019-03-23T23:07:13.135Z,13.20
2019-03-23T23:09:43.573Z,13.20
2019-03-23T23:12:13.845Z,13.10
2019-03-23T23:14:44.166Z,13.10
2019-03-23T23:17:14.566Z,13.10
2019-03-23T23:19:44.889Z,13.10
2019-03-23T23:22:15.276Z,13.00
2019-03-23T23:24:45.667Z,13.00
2019-03-23T23:27:16.011Z,13.00
2019-03-23T23:29:46.357Z,13.20
2019-03-23T23:32:16.683Z,13.40
2019-03-23T23:34:46.999Z,13.50
2019-03-23T23:37:17.402Z,13.30
2019-03-23T23:39:47.697Z,13.40
2019-03-23T23:42:18.576Z,13.40
2019-03-23T23:44:48.954Z,13.20
2019-03-23T23:47:19.385Z,13.20
2019-03-23T23:49:49.744Z,13.10
2019-03-23T23:52:20.111Z,13.00
2019-03-23T23:54:50.446Z,12.60
2019-03-23T23:57:20.893Z,12.50
2019-03-23T23:59:51.283Z,12.30
